sensor_id;sensor_type;location;lat;lon;timestamp;temperature;humidity
24614;DHT22;12760;46.296;25.290;2023-08-21T00:01:37;23.70;99.90
24614;DHT22;12760;46.296;25.290;2023-08-21T00:04:03;23.60;99.90
24614;DHT22;12760;46.296;25.290;2023-08-21T00:06:29;23.50;99.90
24614;DHT22;12760;46.296;25.290;2023-08-21T00:08:54;23.40;99.90
24614;DHT22;12760;46.296;25.290;2023-08-21T00:11:20;23.40;99.90
24614;DHT22;12760;46.296;25.290;2023-08-21T00:13:46;23.30;99.90
24614;DHT22;12760;46.296;25.290;2023-08-21T00:16:14;23.40;99.90
24614;DHT22;12760;46.296;25.290;2023-08-21T00:18:40;23.40;99.90
24614;DHT22;12760;46.296;25.290;2023-08-21T00:21:05;23.50;99.90
24614;DHT22;12760;46.296;25.290;2023-08-21T00:23:31;23.50;99.90
24614;DHT22;12760;46.296;25.290;2023-08-21T00:25:57;23.50;99.90
24614;DHT22;12760;46.296;25.290;2023-08-21T00:28:23;23.40;99.90
24614;DHT22;12760;46.296;25.290;2023-08-21T00:30:48;23.40;99.90
24614;DHT22;12760;46.296;25.290;2023-08-21T00:33:14;23.50;99.90
24614;DHT22;12760;46.296;25.290;2023-08-21T00:35:40;23.40;99.90
24614;DHT22;12760;46.296;25.290;2023-08-21T00:38:07;23.40;99.90
24614;DHT22;12760;46.296;25.290;2023-08-21T00:40:32;23.40;99.90
24614;DHT22;12760;46.296;25.290;2023-08-21T00:42:58;23.30;99.90
24614;DHT22;12760;46.296;25.290;2023-08-21T00:45:24;23.20;99.90
24614;DHT22;12760;46.296;25.290;2023-08-21T00:47:50;23.00;99.90
24614;DHT22;12760;46.296;25.290;2023-08-21T00:50:16;23.00;99.90
24614;DHT22;12760;46.296;25.290;2023-08-21T00:52:45;23.00;99.90
24614;DHT22;12760;46.296;25.290;2023-08-21T00:55:12;23.00;99.90
24614;DHT22;12760;46.296;25.290;2023-08-21T00:57:39;22.90;99.90
24614;DHT22;12760;46.296;25.290;2023-08-21T01:00:05;22.90;99.90
24614;DHT22;12760;46.296;25.290;2023-08-21T01:02:31;22.90;99.90
24614;DHT22;12760;46.296;25.290;2023-08-21T01:04:57;22.90;99.90
24614;DHT22;12760;46.296;25.290;2023-08-21T01:07:22;22.80;99.90
24614;DHT22;12760;46.296;25.290;2023-08-21T01:10:04;22.70;99.90
24614;DHT22;12760;46.296;25.290;2023-08-21T01:12:45;22.60;99.90
24614;DHT22;12760;46.296;25.290;2023-08-21T01:15:12;22.70;99.90
24614;DHT22;12760;46.296;25.290;2023-08-21T01:17:39;22.60;99.90
24614;DHT22;12760;46.296;25.290;2023-08-21T01:20:07;22.60;99.90
24614;DHT22;12760;46.296;25.290;2023-08-21T01:22:37;22.50;99.90
24614;DHT22;12760;46.296;25.290;2023-08-21T01:25:07;22.60;99.90
24614;DHT22;12760;46.296;25.290;2023-08-21T01:27:34;22.60;99.90
24614;DHT22;12760;46.296;25.290;2023-08-21T01:30:01;22.60;99.90
24614;DHT22;12760;46.296;25.290;2023-08-21T01:32:59;22.60;99.90
24614;DHT22;12760;46.296;25.290;2023-08-21T01:35:25;22.60;99.90
24614;DHT22;12760;46.296;25.290;2023-08-21T01:37:51;22.60;99.90
24614;DHT22;12760;46.296;25.290;2023-08-21T01:40:24;22.60;99.90
24614;DHT22;12760;46.296;25.290;2023-08-21T01:42:52;22.60;99.90
24614;DHT22;12760;46.296;25.290;2023-08-21T01:45:18;22.50;99.90
24614;DHT22;12760;46.296;25.290;2023-08-21T01:47:43;22.50;99.90
24614;DHT22;12760;46.296;25.290;2023-08-21T01:50:09;22.50;99.90
24614;DHT22;12760;46.296;25.290;2023-08-21T01:52:35;22.40;99.90
24614;DHT22;12760;46.296;25.290;2023-08-21T01:55:01;22.40;99.90
24614;DHT22;12760;46.296;25.290;2023-08-21T01:57:26;22.30;99.90
24614;DHT22;12760;46.296;25.290;2023-08-21T01:59:52;22.30;99.90
24614;DHT22;12760;46.296;25.290;2023-08-21T02:02:18;22.20;99.90
24614;DHT22;12760;46.296;25.290;2023-08-21T02:04:43;22.30;99.90
24614;DHT22;12760;46.296;25.290;2023-08-21T02:07:09;22.30;99.90
24614;DHT22;12760;46.296;25.290;2023-08-21T02:09:35;22.10;99.90
24614;DHT22;12760;46.296;25.290;2023-08-21T02:12:00;22.20;99.90
24614;DHT22;12760;46.296;25.290;2023-08-21T02:14:26;22.20;99.90
24614;DHT22;12760;46.296;25.290;2023-08-21T02:16:52;22.30;99.90
24614;DHT22;12760;46.296;25.290;2023-08-21T02:19:17;22.20;99.90
24614;DHT22;12760;46.296;25.290;2023-08-21T02:21:43;22.10;99.90
24614;DHT22;12760;46.296;25.290;2023-08-21T02:24:09;22.10;99.90
24614;DHT22;12760;46.296;25.290;2023-08-21T02:26:34;22.00;99.90
24614;DHT22;12760;46.296;25.290;2023-08-21T02:29:00;22.10;99.90
24614;DHT22;12760;46.296;25.290;2023-08-21T02:31:26;22.10;99.90
24614;DHT22;12760;46.296;25.290;2023-08-21T02:33:51;22.00;99.90
24614;DHT22;12760;46.296;25.290;2023-08-21T02:36:17;21.90;99.90
24614;DHT22;12760;46.296;25.290;2023-08-21T02:38:43;21.90;99.90
24614;DHT22;12760;46.296;25.290;2023-08-21T02:41:08;21.90;99.90
24614;DHT22;12760;46.296;25.290;2023-08-21T02:43:34;21.90;99.90
24614;DHT22;12760;46.296;25.290;2023-08-21T02:46:00;21.80;99.90
24614;DHT22;12760;46.296;25.290;2023-08-21T02:48:25;21.80;99.90
24614;DHT22;12760;46.296;25.290;2023-08-21T02:50:51;21.80;99.90
24614;DHT22;12760;46.296;25.290;2023-08-21T02:53:17;21.90;99.90
24614;DHT22;12760;46.296;25.290;2023-08-21T02:55:43;21.80;99.90
24614;DHT22;12760;46.296;25.290;2023-08-21T02:58:08;21.90;99.90
24614;DHT22;12760;46.296;25.290;2023-08-21T03:00:34;21.90;99.90
24614;DHT22;12760;46.296;25.290;2023-08-21T03:03:00;21.80;99.90
24614;DHT22;12760;46.296;25.290;2023-08-21T03:05:26;21.70;99.90
24614;DHT22;12760;46.296;25.290;2023-08-21T03:07:51;21.70;99.90
24614;DHT22;12760;46.296;25.290;2023-08-21T03:10:18;21.60;99.90
24614;DHT22;12760;46.296;25.290;2023-08-21T03:12:43;21.60;99.90
24614;DHT22;12760;46.296;25.290;2023-08-21T03:15:09;21.60;99.90
24614;DHT22;12760;46.296;25.290;2023-08-21T03:17:35;21.60;99.90
24614;DHT22;12760;46.296;25.290;2023-08-21T03:20:01;21.60;99.90
24614;DHT22;12760;46.296;25.290;2023-08-21T03:22:30;21.60;99.90
24614;DHT22;12760;46.296;25.290;2023-08-21T03:24:57;21.60;99.90
24614;DHT22;12760;46.296;25.290;2023-08-21T03:27:23;21.50;99.90
24614;DHT22;12760;46.296;25.290;2023-08-21T03:29:49;21.50;99.90
24614;DHT22;12760;46.296;25.290;2023-08-21T03:32:16;21.50;99.90
24614;DHT22;12760;46.296;25.290;2023-08-21T03:34:42;21.60;99.90
24614;DHT22;12760;46.296;25.290;2023-08-21T03:37:07;21.50;99.90
24614;DHT22;12760;46.296;25.290;2023-08-21T03:39:33;21.40;99.90
24614;DHT22;12760;46.296;25.290;2023-08-21T03:41:59;21.30;99.90
24614;DHT22;12760;46.296;25.290;2023-08-21T03:44:25;21.30;99.90
24614;DHT22;12760;46.296;25.290;2023-08-21T03:46:50;21.30;99.90
24614;DHT22;12760;46.296;25.290;2023-08-21T03:49:16;21.30;99.90
24614;DHT22;12760;46.296;25.290;2023-08-21T03:51:42;21.30;99.90
24614;DHT22;12760;46.296;25.290;2023-08-21T03:54:08;21.40;99.90
24614;DHT22;12760;46.296;25.290;2023-08-21T03:56:34;21.40;99.90
24614;DHT22;12760;46.296;25.290;2023-08-21T03:58:59;21.50;99.90
24614;DHT22;12760;46.296;25.290;2023-08-21T04:01:25;21.40;99.90
24614;DHT22;12760;46.296;25.290;2023-08-21T04:03:51;21.40;99.90
24614;DHT22;12760;46.296;25.290;2023-08-21T04:06:17;21.40;99.90
24614;DHT22;12760;46.296;25.290;2023-08-21T04:08:42;21.40;99.90
24614;DHT22;12760;46.296;25.290;2023-08-21T04:11:09;21.50;99.90
24614;DHT22;12760;46.296;25.290;2023-08-21T04:13:34;21.50;99.90
24614;DHT22;12760;46.296;25.290;2023-08-21T04:16:00;21.40;99.90
24614;DHT22;12760;46.296;25.290;2023-08-21T04:18:26;21.40;99.90
24614;DHT22;12760;46.296;25.290;2023-08-21T04:20:51;21.30;99.90
24614;DHT22;12760;46.296;25.290;2023-08-21T04:23:17;21.30;99.90
24614;DHT22;12760;46.296;25.290;2023-08-21T04:25:43;21.30;99.90
24614;DHT22;12760;46.296;25.290;2023-08-21T04:28:09;21.40;99.90
24614;DHT22;12760;46.296;25.290;2023-08-21T04:30:35;21.30;99.90
24614;DHT22;12760;46.296;25.290;2023-08-21T04:33:01;21.10;99.90
24614;DHT22;12760;46.296;25.290;2023-08-21T04:35:27;21.10;99.90
24614;DHT22;12760;46.296;25.290;2023-08-21T04:37:52;21.20;99.90
24614;DHT22;12760;46.296;25.290;2023-08-21T04:40:18;21.30;99.90
24614;DHT22;12760;46.296;25.290;2023-08-21T04:42:46;21.30;99.90
24614;DHT22;12760;46.296;25.290;2023-08-21T04:45:12;21.40;99.90
24614;DHT22;12760;46.296;25.290;2023-08-21T04:47:38;21.50;99.90
24614;DHT22;12760;46.296;25.290;2023-08-21T04:50:04;21.40;99.90
24614;DHT22;12760;46.296;25.290;2023-08-21T04:52:30;21.40;99.90
24614;DHT22;12760;46.296;25.290;2023-08-21T04:54:56;21.40;99.90
24614;DHT22;12760;46.296;25.290;2023-08-21T04:57:22;21.40;99.90
24614;DHT22;12760;46.296;25.290;2023-08-21T04:59:48;21.40;99.90
24614;DHT22;12760;46.296;25.290;2023-08-21T05:02:14;21.40;99.90
24614;DHT22;12760;46.296;25.290;2023-08-21T05:04:39;21.30;99.90
24614;DHT22;12760;46.296;25.290;2023-08-21T05:07:05;21.40;99.90
24614;DHT22;12760;46.296;25.290;2023-08-21T05:09:34;21.30;99.90
24614;DHT22;12760;46.296;25.290;2023-08-21T05:12:00;21.40;99.90
24614;DHT22;12760;46.296;25.290;2023-08-21T05:14:26;21.40;99.90
24614;DHT22;12760;46.296;25.290;2023-08-21T05:16:51;21.50;99.90
24614;DHT22;12760;46.296;25.290;2023-08-21T05:19:17;21.50;99.90
24614;DHT22;12760;46.296;25.290;2023-08-21T05:21:43;21.40;99.90
24614;DHT22;12760;46.296;25.290;2023-08-21T05:24:09;21.40;99.90
24614;DHT22;12760;46.296;25.290;2023-08-21T05:26:36;21.40;99.90
24614;DHT22;12760;46.296;25.290;2023-08-21T05:29:02;21.50;99.90
24614;DHT22;12760;46.296;25.290;2023-08-21T05:31:28;21.50;99.90
24614;DHT22;12760;46.296;25.290;2023-08-21T05:33:54;21.60;99.90
24614;DHT22;12760;46.296;25.290;2023-08-21T05:36:19;21.60;99.90
24614;DHT22;12760;46.296;25.290;2023-08-21T05:38:45;21.60;99.90
24614;DHT22;12760;46.296;25.290;2023-08-21T05:41:11;21.80;99.90
24614;DHT22;12760;46.296;25.290;2023-08-21T05:43:37;21.70;99.90
24614;DHT22;12760;46.296;25.290;2023-08-21T05:46:06;21.70;99.90
24614;DHT22;12760;46.296;25.290;2023-08-21T05:48:31;21.80;99.90
24614;DHT22;12760;46.296;25.290;2023-08-21T05:50:57;21.90;99.90
24614;DHT22;12760;46.296;25.290;2023-08-21T05:53:23;22.10;99.90
24614;DHT22;12760;46.296;25.290;2023-08-21T05:55:49;22.20;99.90
24614;DHT22;12760;46.296;25.290;2023-08-21T05:58:14;22.40;99.90
24614;DHT22;12760;46.296;25.290;2023-08-21T06:00:40;22.60;99.90
24614;DHT22;12760;46.296;25.290;2023-08-21T06:03:06;22.80;99.90
24614;DHT22;12760;46.296;25.290;2023-08-21T06:05:32;23.10;99.90
24614;DHT22;12760;46.296;25.290;2023-08-21T06:07:57;23.30;99.90
24614;DHT22;12760;46.296;25.290;2023-08-21T06:10:23;23.50;99.90
24614;DHT22;12760;46.296;25.290;2023-08-21T06:12:49;23.70;99.90
24614;DHT22;12760;46.296;25.290;2023-08-21T06:15:16;23.80;99.90
24614;DHT22;12760;46.296;25.290;2023-08-21T06:17:42;24.10;99.90
24614;DHT22;12760;46.296;25.290;2023-08-21T06:20:08;24.30;99.90
24614;DHT22;12760;46.296;25.290;2023-08-21T06:22:35;24.50;99.90
24614;DHT22;12760;46.296;25.290;2023-08-21T06:25:01;24.70;99.90
24614;DHT22;12760;46.296;25.290;2023-08-21T06:27:27;24.90;99.90
24614;DHT22;12760;46.296;25.290;2023-08-21T06:29:52;25.00;99.90
24614;DHT22;12760;46.296;25.290;2023-08-21T06:32:18;25.20;99.90
24614;DHT22;12760;46.296;25.290;2023-08-21T06:34:44;25.40;99.90
24614;DHT22;12760;46.296;25.290;2023-08-21T06:37:09;25.60;99.90
24614;DHT22;12760;46.296;25.290;2023-08-21T06:39:35;25.70;99.90
24614;DHT22;12760;46.296;25.290;2023-08-21T06:42:01;25.90;99.90
24614;DHT22;12760;46.296;25.290;2023-08-21T06:44:27;26.00;99.90
24614;DHT22;12760;46.296;25.290;2023-08-21T06:46:53;26.30;99.90
24614;DHT22;12760;46.296;25.290;2023-08-21T06:49:18;26.40;99.90
24614;DHT22;12760;46.296;25.290;2023-08-21T06:51:44;26.60;99.90
24614;DHT22;12760;46.296;25.290;2023-08-21T06:54:10;26.90;99.90
24614;DHT22;12760;46.296;25.290;2023-08-21T06:56:36;27.00;99.90
24614;DHT22;12760;46.296;25.290;2023-08-21T06:59:01;27.00;99.80
24614;DHT22;12760;46.296;25.290;2023-08-21T07:01:28;27.10;99.70
24614;DHT22;12760;46.296;25.290;2023-08-21T07:03:54;27.20;99.90
24614;DHT22;12760;46.296;25.290;2023-08-21T07:06:19;27.30;99.80
24614;DHT22;12760;46.296;25.290;2023-08-21T07:08:45;27.50;99.40
24614;DHT22;12760;46.296;25.290;2023-08-21T07:11:11;27.60;99.50
24614;DHT22;12760;46.296;25.290;2023-08-21T07:13:38;27.60;99.00
24614;DHT22;12760;46.296;25.290;2023-08-21T07:16:04;27.70;98.90
24614;DHT22;12760;46.296;25.290;2023-08-21T07:18:34;27.90;99.00
24614;DHT22;12760;46.296;25.290;2023-08-21T07:21:04;28.00;99.00
24614;DHT22;12760;46.296;25.290;2023-08-21T07:23:30;28.00;98.50
24614;DHT22;12760;46.296;25.290;2023-08-21T07:25:57;28.20;98.90
24614;DHT22;12760;46.296;25.290;2023-08-21T07:28:23;28.40;98.30
24614;DHT22;12760;46.296;25.290;2023-08-21T07:30:57;28.60;98.70
24614;DHT22;12760;46.296;25.290;2023-08-21T07:33:24;28.70;98.40
24614;DHT22;12760;46.296;25.290;2023-08-21T07:36:04;28.90;98.10
24614;DHT22;12760;46.296;25.290;2023-08-21T07:38:30;29.10;97.80
24614;DHT22;12760;46.296;25.290;2023-08-21T07:41:06;29.20;98.00
24614;DHT22;12760;46.296;25.290;2023-08-21T07:43:33;29.40;96.50
24614;DHT22;12760;46.296;25.290;2023-08-21T07:46:06;29.30;97.10
24614;DHT22;12760;46.296;25.290;2023-08-21T07:48:32;29.40;97.10
24614;DHT22;12760;46.296;25.290;2023-08-21T07:50:58;29.70;97.10
24614;DHT22;12760;46.296;25.290;2023-08-21T07:53:25;29.80;96.90
24614;DHT22;12760;46.296;25.290;2023-08-21T07:55:51;30.00;96.70
24614;DHT22;12760;46.296;25.290;2023-08-21T07:58:18;30.20;96.40
24614;DHT22;12760;46.296;25.290;2023-08-21T08:00:43;30.40;96.00
24614;DHT22;12760;46.296;25.290;2023-08-21T08:03:09;30.40;95.10
24614;DHT22;12760;46.296;25.290;2023-08-21T08:05:36;30.40;95.70
24614;DHT22;12760;46.296;25.290;2023-08-21T08:08:02;30.60;95.30
24614;DHT22;12760;46.296;25.290;2023-08-21T08:10:28;30.50;94.30
24614;DHT22;12760;46.296;25.290;2023-08-21T08:12:54;30.60;94.70
24614;DHT22;12760;46.296;25.290;2023-08-21T08:15:21;30.90;95.20
24614;DHT22;12760;46.296;25.290;2023-08-21T08:17:47;31.10;94.40
24614;DHT22;12760;46.296;25.290;2023-08-21T08:20:13;31.30;94.40
24614;DHT22;12760;46.296;25.290;2023-08-21T08:22:42;31.10;94.70
24614;DHT22;12760;46.296;25.290;2023-08-21T08:25:07;31.30;94.70
24614;DHT22;12760;46.296;25.290;2023-08-21T08:27:33;31.50;94.80
24614;DHT22;12760;46.296;25.290;2023-08-21T08:29:59;31.70;94.90
24614;DHT22;12760;46.296;25.290;2023-08-21T08:32:26;31.80;94.50
24614;DHT22;12760;46.296;25.290;2023-08-21T08:34:54;31.70;94.30
24614;DHT22;12760;46.296;25.290;2023-08-21T08:37:20;31.80;94.60
24614;DHT22;12760;46.296;25.290;2023-08-21T08:39:47;31.90;94.40
24614;DHT22;12760;46.296;25.290;2023-08-21T08:42:14;32.10;94.20
24614;DHT22;12760;46.296;25.290;2023-08-21T08:44:40;31.90;94.00
24614;DHT22;12760;46.296;25.290;2023-08-21T08:47:07;31.70;94.30
24614;DHT22;12760;46.296;25.290;2023-08-21T08:49:33;31.80;94.60
24614;DHT22;12760;46.296;25.290;2023-08-21T08:52:02;32.00;94.80
24614;DHT22;12760;46.296;25.290;2023-08-21T08:54:29;32.10;94.20
24614;DHT22;12760;46.296;25.290;2023-08-21T08:56:55;31.90;94.60
24614;DHT22;12760;46.296;25.290;2023-08-21T08:59:21;32.20;94.80
24614;DHT22;12760;46.296;25.290;2023-08-21T09:01:46;32.20;94.30
24614;DHT22;12760;46.296;25.290;2023-08-21T09:04:12;32.20;94.40
24614;DHT22;12760;46.296;25.290;2023-08-21T09:06:38;32.40;94.30
24614;DHT22;12760;46.296;25.290;2023-08-21T09:09:05;32.60;94.00
24614;DHT22;12760;46.296;25.290;2023-08-21T09:11:32;32.30;94.00
24614;DHT22;12760;46.296;25.290;2023-08-21T09:13:58;32.40;94.20
24614;DHT22;12760;46.296;25.290;2023-08-21T09:16:24;32.70;94.40
24614;DHT22;12760;46.296;25.290;2023-08-21T09:18:54;32.60;93.80
24614;DHT22;12760;46.296;25.290;2023-08-21T09:21:22;32.70;94.00
24614;DHT22;12760;46.296;25.290;2023-08-21T09:23:56;32.80;93.80
24614;DHT22;12760;46.296;25.290;2023-08-21T09:26:22;32.70;93.40
24614;DHT22;12760;46.296;25.290;2023-08-21T09:28:49;32.80;93.60
24614;DHT22;12760;46.296;25.290;2023-08-21T09:31:15;32.90;93.10
24614;DHT22;12760;46.296;25.290;2023-08-21T09:33:41;33.00;92.40
24614;DHT22;12760;46.296;25.290;2023-08-21T09:36:09;33.00;92.00
24614;DHT22;12760;46.296;25.290;2023-08-21T09:38:38;33.30;92.10
24614;DHT22;12760;46.296;25.290;2023-08-21T09:41:03;33.40;91.60
24614;DHT22;12760;46.296;25.290;2023-08-21T09:43:29;33.60;91.40
24614;DHT22;12760;46.296;25.290;2023-08-21T09:45:55;33.70;91.10
24614;DHT22;12760;46.296;25.290;2023-08-21T09:48:27;33.70;90.70
24614;DHT22;12760;46.296;25.290;2023-08-21T09:50:54;33.90;90.50
24614;DHT22;12760;46.296;25.290;2023-08-21T09:53:23;33.90;90.20
24614;DHT22;12760;46.296;25.290;2023-08-21T09:55:55;33.70;91.50
24614;DHT22;12760;46.296;25.290;2023-08-21T09:58:21;33.80;91.10
24614;DHT22;12760;46.296;25.290;2023-08-21T10:00:49;33.80;91.20
24614;DHT22;12760;46.296;25.290;2023-08-21T10:03:20;33.60;90.80
24614;DHT22;12760;46.296;25.290;2023-08-21T10:05:47;33.60;90.70
24614;DHT22;12760;46.296;25.290;2023-08-21T10:08:16;33.30;91.00
24614;DHT22;12760;46.296;25.290;2023-08-21T10:10:43;33.00;91.10
24614;DHT22;12760;46.296;25.290;2023-08-21T10:13:10;33.10;91.60
24614;DHT22;12760;46.296;25.290;2023-08-21T10:15:37;33.40;91.60
24614;DHT22;12760;46.296;25.290;2023-08-21T10:18:19;33.50;91.20
24614;DHT22;12760;46.296;25.290;2023-08-21T10:20:46;33.30;91.70
24614;DHT22;12760;46.296;25.290;2023-08-21T10:23:24;33.50;91.60
24614;DHT22;12760;46.296;25.290;2023-08-21T10:25:58;33.70;91.60
24614;DHT22;12760;46.296;25.290;2023-08-21T10:28:23;33.80;91.30
24614;DHT22;12760;46.296;25.290;2023-08-21T10:30:49;33.70;91.30
24614;DHT22;12760;46.296;25.290;2023-08-21T10:33:15;33.70;91.00
24614;DHT22;12760;46.296;25.290;2023-08-21T10:35:41;33.80;91.20
24614;DHT22;12760;46.296;25.290;2023-08-21T10:38:24;33.90;91.10
24614;DHT22;12760;46.296;25.290;2023-08-21T10:41:08;34.10;91.40
24614;DHT22;12760;46.296;25.290;2023-08-21T10:43:39;34.30;88.60
24614;DHT22;12760;46.296;25.290;2023-08-21T10:46:07;34.30;89.40
24614;DHT22;12760;46.296;25.290;2023-08-21T10:48:33;34.30;87.00
24614;DHT22;12760;46.296;25.290;2023-08-21T10:51:01;34.40;88.50
24614;DHT22;12760;46.296;25.290;2023-08-21T10:53:28;34.40;89.00
24614;DHT22;12760;46.296;25.290;2023-08-21T10:55:54;34.30;88.50
24614;DHT22;12760;46.296;25.290;2023-08-21T10:58:20;34.30;87.20
24614;DHT22;12760;46.296;25.290;2023-08-21T11:00:46;34.20;87.40
24614;DHT22;12760;46.296;25.290;2023-08-21T11:03:12;34.20;90.10
24614;DHT22;12760;46.296;25.290;2023-08-21T11:05:40;34.30;90.30
24614;DHT22;12760;46.296;25.290;2023-08-21T11:08:06;34.40;90.60
24614;DHT22;12760;46.296;25.290;2023-08-21T11:10:32;34.50;90.00
24614;DHT22;12760;46.296;25.290;2023-08-21T11:12:58;34.50;90.50
24614;DHT22;12760;46.296;25.290;2023-08-21T11:15:28;34.50;90.50
24614;DHT22;12760;46.296;25.290;2023-08-21T11:17:59;34.50;90.10
24614;DHT22;12760;46.296;25.290;2023-08-21T11:20:33;34.60;90.50
24614;DHT22;12760;46.296;25.290;2023-08-21T11:23:01;34.50;90.60
24614;DHT22;12760;46.296;25.290;2023-08-21T11:25:33;34.50;91.00
24614;DHT22;12760;46.296;25.290;2023-08-21T11:28:00;34.50;91.10
24614;DHT22;12760;46.296;25.290;2023-08-21T11:30:33;34.50;90.80
24614;DHT22;12760;46.296;25.290;2023-08-21T11:33:09;34.60;90.50
24614;DHT22;12760;46.296;25.290;2023-08-21T11:35:36;34.60;89.90
24614;DHT22;12760;46.296;25.290;2023-08-21T11:38:02;34.50;90.10
24614;DHT22;12760;46.296;25.290;2023-08-21T11:40:28;34.60;90.20
24614;DHT22;12760;46.296;25.290;2023-08-21T11:43:00;34.70;90.40
24614;DHT22;12760;46.296;25.290;2023-08-21T11:45:26;34.80;90.40
24614;DHT22;12760;46.296;25.290;2023-08-21T11:47:55;34.60;89.20
24614;DHT22;12760;46.296;25.290;2023-08-21T11:50:22;34.50;90.20
24614;DHT22;12760;46.296;25.290;2023-08-21T11:52:51;34.50;90.20
24614;DHT22;12760;46.296;25.290;2023-08-21T11:55:17;34.60;90.00
24614;DHT22;12760;46.296;25.290;2023-08-21T11:57:50;34.50;88.90
24614;DHT22;12760;46.296;25.290;2023-08-21T12:00:28;34.50;89.60
24614;DHT22;12760;46.296;25.290;2023-08-21T12:02:57;34.50;88.80
24614;DHT22;12760;46.296;25.290;2023-08-21T12:05:23;34.40;87.80
24614;DHT22;12760;46.296;25.290;2023-08-21T12:07:49;34.40;88.20
24614;DHT22;12760;46.296;25.290;2023-08-21T12:10:25;34.40;88.80
24614;DHT22;12760;46.296;25.290;2023-08-21T12:12:51;34.40;87.60
24614;DHT22;12760;46.296;25.290;2023-08-21T12:15:17;34.40;84.80
24614;DHT22;12760;46.296;25.290;2023-08-21T12:17:43;34.50;86.50
24614;DHT22;12760;46.296;25.290;2023-08-21T12:20:09;34.50;88.20
24614;DHT22;12760;46.296;25.290;2023-08-21T12:22:38;34.50;89.20
24614;DHT22;12760;46.296;25.290;2023-08-21T12:25:04;34.50;89.00
24614;DHT22;12760;46.296;25.290;2023-08-21T12:27:30;34.60;88.40
24614;DHT22;12760;46.296;25.290;2023-08-21T12:29:56;34.60;87.50
24614;DHT22;12760;46.296;25.290;2023-08-21T12:32:22;34.60;89.20
24614;DHT22;12760;46.296;25.290;2023-08-21T12:34:48;34.70;90.10
24614;DHT22;12760;46.296;25.290;2023-08-21T12:37:13;34.70;88.80
24614;DHT22;12760;46.296;25.290;2023-08-21T12:39:39;34.70;89.70
24614;DHT22;12760;46.296;25.290;2023-08-21T12:42:05;34.70;90.20
24614;DHT22;12760;46.296;25.290;2023-08-21T12:44:31;34.70;90.40
24614;DHT22;12760;46.296;25.290;2023-08-21T12:46:56;34.70;90.20
24614;DHT22;12760;46.296;25.290;2023-08-21T12:49:22;34.70;88.90
24614;DHT22;12760;46.296;25.290;2023-08-21T12:51:48;34.60;88.30
24614;DHT22;12760;46.296;25.290;2023-08-21T12:54:13;34.60;87.30
24614;DHT22;12760;46.296;25.290;2023-08-21T12:56:39;34.50;87.60
24614;DHT22;12760;46.296;25.290;2023-08-21T12:59:05;34.60;89.20
24614;DHT22;12760;46.296;25.290;2023-08-21T13:01:31;34.70;88.40
24614;DHT22;12760;46.296;25.290;2023-08-21T13:04:00;34.60;89.80
24614;DHT22;12760;46.296;25.290;2023-08-21T13:06:25;34.50;90.00
24614;DHT22;12760;46.296;25.290;2023-08-21T13:08:51;34.40;89.60
24614;DHT22;12760;46.296;25.290;2023-08-21T13:11:17;34.40;89.90
24614;DHT22;12760;46.296;25.290;2023-08-21T13:13:43;34.30;90.10
24614;DHT22;12760;46.296;25.290;2023-08-21T13:16:08;34.30;90.20
24614;DHT22;12760;46.296;25.290;2023-08-21T13:18:34;34.30;90.00
24614;DHT22;12760;46.296;25.290;2023-08-21T13:21:00;34.40;89.20
24614;DHT22;12760;46.296;25.290;2023-08-21T13:23:27;34.40;89.90
24614;DHT22;12760;46.296;25.290;2023-08-21T13:25:53;34.40;90.80
24614;DHT22;12760;46.296;25.290;2023-08-21T13:28:19;34.40;90.60
24614;DHT22;12760;46.296;25.290;2023-08-21T13:30:45;34.30;90.50
24614;DHT22;12760;46.296;25.290;2023-08-21T13:33:10;34.30;90.90
24614;DHT22;12760;46.296;25.290;2023-08-21T13:35:36;34.30;90.80
24614;DHT22;12760;46.296;25.290;2023-08-21T13:38:02;34.30;90.10
24614;DHT22;12760;46.296;25.290;2023-08-21T13:40:29;34.30;91.10
24614;DHT22;12760;46.296;25.290;2023-08-21T13:42:54;34.30;91.20
24614;DHT22;12760;46.296;25.290;2023-08-21T13:45:22;34.30;91.40
24614;DHT22;12760;46.296;25.290;2023-08-21T13:47:49;34.30;91.40
24614;DHT22;12760;46.296;25.290;2023-08-21T13:50:16;34.30;91.00
24614;DHT22;12760;46.296;25.290;2023-08-21T13:52:43;34.30;90.80
24614;DHT22;12760;46.296;25.290;2023-08-21T13:55:10;34.30;90.90
24614;DHT22;12760;46.296;25.290;2023-08-21T13:57:36;34.30;91.10
24614;DHT22;12760;46.296;25.290;2023-08-21T14:00:04;34.20;90.90
24614;DHT22;12760;46.296;25.290;2023-08-21T14:02:34;34.20;90.50
24614;DHT22;12760;46.296;25.290;2023-08-21T14:05:00;34.10;90.60
24614;DHT22;12760;46.296;25.290;2023-08-21T14:07:26;34.10;90.30
24614;DHT22;12760;46.296;25.290;2023-08-21T14:09:52;34.10;90.40
24614;DHT22;12760;46.296;25.290;2023-08-21T14:12:18;34.10;90.50
24614;DHT22;12760;46.296;25.290;2023-08-21T14:14:44;34.10;90.50
24614;DHT22;12760;46.296;25.290;2023-08-21T14:17:10;34.00;88.90
24614;DHT22;12760;46.296;25.290;2023-08-21T14:19:36;33.90;89.20
24614;DHT22;12760;46.296;25.290;2023-08-21T14:22:01;33.90;90.30
24614;DHT22;12760;46.296;25.290;2023-08-21T14:24:28;33.90;89.90
24614;DHT22;12760;46.296;25.290;2023-08-21T14:26:54;33.80;89.70
24614;DHT22;12760;46.296;25.290;2023-08-21T14:29:20;33.80;90.00
24614;DHT22;12760;46.296;25.290;2023-08-21T14:31:46;33.80;91.20
24614;DHT22;12760;46.296;25.290;2023-08-21T14:34:13;33.90;91.70
24614;DHT22;12760;46.296;25.290;2023-08-21T14:36:39;33.90;91.10
24614;DHT22;12760;46.296;25.290;2023-08-21T14:39:05;33.80;91.20
24614;DHT22;12760;46.296;25.290;2023-08-21T14:41:31;33.80;91.20
24614;DHT22;12760;46.296;25.290;2023-08-21T14:43:57;33.80;91.50
24614;DHT22;12760;46.296;25.290;2023-08-21T14:46:23;33.80;91.70
24614;DHT22;12760;46.296;25.290;2023-08-21T14:48:49;33.70;91.50
24614;DHT22;12760;46.296;25.290;2023-08-21T14:51:14;33.70;91.50
24614;DHT22;12760;46.296;25.290;2023-08-21T14:53:40;33.60;91.90
24614;DHT22;12760;46.296;25.290;2023-08-21T14:56:06;33.40;92.20
24614;DHT22;12760;46.296;25.290;2023-08-21T14:58:31;33.40;92.60
24614;DHT22;12760;46.296;25.290;2023-08-21T15:00:57;33.20;92.80
24614;DHT22;12760;46.296;25.290;2023-08-21T15:03:23;33.20;93.10
24614;DHT22;12760;46.296;25.290;2023-08-21T15:05:48;33.10;93.30
24614;DHT22;12760;46.296;25.290;2023-08-21T15:08:14;33.10;93.50
24614;DHT22;12760;46.296;25.290;2023-08-21T15:10:40;32.90;93.70
24614;DHT22;12760;46.296;25.290;2023-08-21T15:13:05;32.80;93.90